ΕΜΥ, Εθνική Μετεωρολογική Υπηρεσία - Δελτία Καιρού, Προγνώσεις

ΑΕΡΟΝΑΥΤΙΛΙΑ

GREEK AIRPORTS CODES

TAF LGNX 180700Z 1809/1818 21013KT 8000 SCT020 SCT050=

EUROPEAN AIRPORTS CODES

EPWA 180900Z VRB02KT 9999 BKN008 08/06 Q1020 BECMG BKN012=